createdAt,value
2023-04-12T00:00:45.693Z,7.60
2023-04-12T00:03:12.902Z,7.90
2023-04-12T00:05:47.264Z,5.28
2023-04-12T00:10:41.641Z,6.70
2023-04-12T00:13:11.274Z,6.90
2023-04-12T00:15:39.653Z,5.50
2023-04-12T00:18:06.854Z,4.80
2023-04-12T00:20:33.906Z,4.70
2023-04-12T00:23:02.440Z,5.70
2023-04-12T00:25:29.802Z,6.53
2023-04-12T00:27:56.755Z,6.82
2023-04-12T00:30:23.938Z,7.00
2023-04-12T00:32:51.552Z,6.03
2023-04-12T00:35:19.227Z,5.65
2023-04-12T00:37:47.275Z,6.63
2023-04-12T00:40:14.280Z,6.03
2023-04-12T00:42:41.891Z,5.53
2023-04-12T00:45:09.522Z,6.03
2023-04-12T00:47:40.269Z,6.30
2023-04-12T00:50:08.977Z,7.07
2023-04-12T00:52:35.965Z,7.22
2023-04-12T00:55:10.376Z,7.63
2023-04-12T00:57:38.698Z,6.35
2023-04-12T01:00:08.245Z,6.55
2023-04-12T01:02:39.358Z,6.25
2023-04-12T01:05:08.895Z,6.40
2023-04-12T01:07:51.656Z,6.40
2023-04-12T01:10:33.589Z,5.97
2023-04-12T01:13:09.945Z,6.90
2023-04-12T01:15:39.886Z,8.73
2023-04-12T01:18:14.716Z,11.13
2023-04-12T01:20:48.418Z,8.95
2023-04-12T01:23:41.621Z,8.15
2023-04-12T01:26:33.102Z,6.38
2023-04-12T01:29:03.901Z,6.32
2023-04-12T01:31:30.976Z,7.00
2023-04-12T01:33:58.674Z,5.90
2023-04-12T01:36:27.420Z,5.57
2023-04-12T01:38:54.839Z,6.55
2023-04-12T01:41:21.945Z,6.85
2023-04-12T01:43:49.012Z,6.32
2023-04-12T01:46:17.333Z,6.57
2023-04-12T01:48:52.468Z,7.88
2023-04-12T01:52:05.004Z,7.18
2023-04-12T01:54:34.635Z,6.63
2023-04-12T01:57:03.158Z,6.13
2023-04-12T01:59:36.576Z,5.85
2023-04-12T02:02:04.899Z,8.70
2023-04-12T02:04:34.560Z,5.82
2023-04-12T02:07:02.606Z,6.00
2023-04-12T02:09:39.067Z,5.43
2023-04-12T02:12:28.937Z,9.13
2023-04-12T02:15:00.306Z,6.43
2023-04-12T02:17:29.805Z,8.65
2023-04-12T02:19:57.769Z,6.63
2023-04-12T02:22:24.740Z,6.45
2023-04-12T02:24:52.062Z,6.90
2023-04-12T02:27:19.252Z,7.40
2023-04-12T02:29:46.356Z,6.97
2023-04-12T02:32:16.492Z,7.45
2023-04-12T02:34:44.509Z,6.18
2023-04-12T02:37:21.852Z,8.30
2023-04-12T02:39:50.012Z,6.43
2023-04-12T02:42:17.245Z,7.20
2023-04-12T02:44:48.042Z,5.57
2023-04-12T02:47:15.727Z,7.85
2023-04-12T02:49:46.667Z,7.75
2023-04-12T02:52:16.485Z,7.95
2023-04-12T02:55:08.531Z,7.72
2023-04-12T02:57:35.637Z,10.40
2023-04-12T03:00:15.405Z,9.25
2023-04-12T03:02:51.179Z,8.30
2023-04-12T03:05:23.217Z,7.60
2023-04-12T03:07:51.877Z,7.60
2023-04-12T03:10:23.771Z,9.35
2023-04-12T03:12:59.776Z,7.63
2023-04-12T03:15:33.886Z,8.02
2023-04-12T03:18:01.698Z,7.40
2023-04-12T03:20:33.567Z,6.70
2023-04-12T03:23:07.140Z,6.32
2023-04-12T03:25:39.957Z,9.25
2023-04-12T03:28:26.439Z,6.03
2023-04-12T03:30:54.278Z,8.30
2023-04-12T03:33:27.286Z,7.90
2023-04-12T03:36:01.489Z,8.45
2023-04-12T03:38:31.237Z,7.20
2023-04-12T03:40:59.498Z,8.23
2023-04-12T03:43:37.517Z,9.27
2023-04-12T03:46:11.359Z,7.80
2023-04-12T03:48:38.942Z,7.60
2023-04-12T03:51:07.858Z,10.65
2023-04-12T03:53:41.148Z,10.10
2023-04-12T03:56:12.811Z,8.43
2023-04-12T03:58:41.420Z,7.88
2023-04-12T04:01:09.339Z,6.72
2023-04-12T04:03:37.376Z,9.85
2023-04-12T04:06:18.501Z,6.57
2023-04-12T04:08:45.561Z,7.60
2023-04-12T04:11:13.975Z,12.10
2023-04-12T04:13:46.722Z,10.82
2023-04-12T04:16:18.858Z,7.90
2023-04-12T04:18:46.487Z,11.13
2023-04-12T04:21:15.783Z,7.72
2023-04-12T04:23:45.464Z,8.48
2023-04-12T04:26:13.859Z,8.95
2023-04-12T04:28:50.347Z,8.52
2023-04-12T04:31:22.387Z,9.02
2023-04-12T04:33:51.133Z,11.23
2023-04-12T04:36:21.822Z,10.25
2023-04-12T04:38:53.409Z,12.73
2023-04-12T04:41:39.353Z,8.85
2023-04-12T04:44:11.418Z,7.53
2023-04-12T04:46:49.950Z,7.45
2023-04-12T04:49:17.259Z,9.82
2023-04-12T04:51:44.301Z,7.85
2023-04-12T04:54:14.124Z,6.95
2023-04-12T04:56:42.564Z,9.70
2023-04-12T04:59:11.125Z,5.55
2023-04-12T05:01:38.496Z,6.72
2023-04-12T05:04:06.902Z,9.50
2023-04-12T05:06:34.647Z,7.53
2023-04-12T05:09:03.005Z,8.95
2023-04-12T05:11:37.817Z,9.40
2023-04-12T05:14:12.421Z,7.45
2023-04-12T05:16:39.994Z,7.85
2023-04-12T05:19:14.112Z,9.18
2023-04-12T05:21:41.294Z,9.00
2023-04-12T05:24:08.755Z,8.80
2023-04-12T05:26:40.112Z,10.70
2023-04-12T05:29:13.440Z,8.23
2023-04-12T05:31:42.509Z,6.18
2023-04-12T05:34:16.632Z,7.97
2023-04-12T05:36:57.957Z,6.88
2023-04-12T05:39:27.829Z,8.73
2023-04-12T05:41:56.414Z,12.32
2023-04-12T05:44:28.552Z,10.38
2023-04-12T05:46:56.361Z,11.02
2023-04-12T05:49:25.877Z,16.45
2023-04-12T05:51:56.894Z,8.98
2023-04-12T05:54:25.635Z,8.48
2023-04-12T05:56:57.174Z,10.50
2023-04-12T05:59:24.872Z,10.43
2023-04-12T06:01:52.021Z,11.70
2023-04-12T06:04:21.682Z,10.80
2023-04-12T06:06:49.010Z,9.52
2023-04-12T06:09:16.053Z,11.95
2023-04-12T06:11:43.734Z,9.00
2023-04-12T06:14:12.006Z,10.77
2023-04-12T06:16:40.674Z,10.30
2023-04-12T06:19:08.860Z,10.93
2023-04-12T06:21:36.150Z,12.48
2023-04-12T06:24:07.141Z,9.70
2023-04-12T06:26:39.761Z,7.50
2023-04-12T06:29:07.868Z,9.77
2023-04-12T06:31:40.297Z,10.15
2023-04-12T06:34:07.902Z,10.90
2023-04-12T06:36:40.125Z,11.90
2023-04-12T06:39:08.249Z,9.93
2023-04-12T06:41:36.013Z,11.68
2023-04-12T06:44:03.688Z,7.72
2023-04-12T06:46:31.723Z,7.55
2023-04-12T06:48:59.546Z,13.00
2023-04-12T06:51:28.789Z,9.07
2023-04-12T06:53:58.250Z,9.32
2023-04-12T06:56:25.369Z,11.85
2023-04-12T06:58:52.367Z,10.45
2023-04-12T07:01:19.556Z,7.80
2023-04-12T07:03:46.729Z,10.55
2023-04-12T07:06:24.516Z,9.85
2023-04-12T07:08:53.013Z,10.57
2023-04-12T07:11:23.224Z,14.95
2023-04-12T07:13:51.808Z,13.55
2023-04-12T07:16:20.955Z,9.93
2023-04-12T07:18:48.577Z,9.63
2023-04-12T07:21:17.602Z,9.90
2023-04-12T07:23:44.930Z,10.00
2023-04-12T07:26:14.689Z,13.00
2023-04-12T07:28:41.733Z,15.32
2023-04-12T07:31:09.354Z,13.18
2023-04-12T07:33:38.728Z,15.43
2023-04-12T07:36:07.736Z,16.65
2023-04-12T07:38:38.168Z,16.63
2023-04-12T07:41:06.074Z,14.80
2023-04-12T07:43:34.016Z,21.77
2023-04-12T07:46:04.696Z,13.52
2023-04-12T07:48:31.854Z,15.45
2023-04-12T07:50:58.853Z,15.23
2023-04-12T07:53:28.063Z,13.25
2023-04-12T07:55:56.452Z,13.82
2023-04-12T07:58:25.040Z,13.98
2023-04-12T08:00:54.283Z,18.08
2023-04-12T08:03:24.498Z,14.80
2023-04-12T08:05:55.784Z,14.02
2023-04-12T08:08:23.102Z,11.02
2023-04-12T08:10:51.903Z,11.75
2023-04-12T08:13:51.518Z,10.50
2023-04-12T08:16:21.099Z,10.82
2023-04-12T08:18:49.250Z,11.32
2023-04-12T08:21:19.598Z,10.88
2023-04-12T08:23:46.956Z,10.70
2023-04-12T08:26:14.016Z,11.23
2023-04-12T08:28:41.010Z,9.48
2023-04-12T08:31:09.050Z,10.60
2023-04-12T08:33:38.629Z,8.15
2023-04-12T08:36:10.320Z,11.02
2023-04-12T08:38:45.727Z,11.48
2023-04-12T08:41:14.715Z,12.13
2023-04-12T08:43:47.638Z,11.32
2023-04-12T08:46:18.699Z,12.98
2023-04-12T08:48:47.433Z,13.13
2023-04-12T08:51:19.432Z,10.45
2023-04-12T08:53:46.618Z,9.52
2023-04-12T08:56:14.380Z,12.50
2023-04-12T08:58:48.933Z,9.73
2023-04-12T09:01:16.747Z,10.38
2023-04-12T09:03:44.874Z,10.10
2023-04-12T09:06:14.290Z,10.70
2023-04-12T09:08:57.004Z,11.00
2023-04-12T09:11:30.910Z,12.82
2023-04-12T09:13:58.880Z,11.90
2023-04-12T09:16:36.157Z,9.30
2023-04-12T09:19:04.310Z,8.57
2023-04-12T09:21:34.689Z,10.45
2023-04-12T09:24:12.602Z,8.80
2023-04-12T09:26:44.575Z,9.18
2023-04-12T09:29:32.195Z,10.90
2023-04-12T09:32:07.549Z,10.35
2023-04-12T09:34:35.963Z,10.10
2023-04-12T09:37:16.367Z,8.77
2023-04-12T09:39:43.493Z,8.15
2023-04-12T09:42:25.676Z,8.38
2023-04-12T09:44:58.933Z,7.47
2023-04-12T09:47:39.214Z,6.22
2023-04-12T09:50:10.198Z,7.85
2023-04-12T09:52:39.149Z,7.22
2023-04-12T09:55:10.410Z,8.18
2023-04-12T09:57:49.405Z,6.20
2023-04-12T10:00:20.275Z,5.60
2023-04-12T10:02:52.644Z,8.43
2023-04-12T10:05:21.946Z,4.60
2023-04-12T10:07:51.031Z,6.47
2023-04-12T10:10:22.146Z,5.55
2023-04-12T10:12:49.426Z,6.35
2023-04-12T10:15:21.925Z,7.10
2023-04-12T10:17:57.845Z,5.18
2023-04-12T10:20:29.327Z,7.68
2023-04-12T10:22:57.775Z,7.35
2023-04-12T10:25:32.857Z,9.45
2023-04-12T10:28:17.579Z,10.68
2023-04-12T10:30:45.223Z,7.80
2023-04-12T10:33:13.999Z,5.82
2023-04-12T10:36:08.600Z,6.88
2023-04-12T10:38:50.182Z,10.10
2023-04-12T10:41:19.596Z,8.20
2023-04-12T10:43:52.355Z,7.68
2023-04-12T10:46:41.002Z,7.50
2023-04-12T10:49:11.968Z,9.43
2023-04-12T10:51:39.794Z,6.35
2023-04-12T10:54:17.500Z,6.93
2023-04-12T10:59:54.263Z,7.95
2023-04-12T11:02:22.231Z,7.97
2023-04-12T11:05:09.852Z,6.00
2023-04-12T11:07:54.080Z,8.13
2023-04-12T11:10:39.759Z,7.15
2023-04-12T11:13:09.351Z,4.78
2023-04-12T11:15:38.866Z,7.43
2023-04-12T11:18:11.938Z,5.90
2023-04-12T11:20:43.506Z,4.85
2023-04-12T11:23:11.671Z,6.22
2023-04-12T11:25:39.184Z,7.03
2023-04-12T11:28:21.260Z,5.95
2023-04-12T11:30:58.000Z,7.50
2023-04-12T11:33:39.007Z,6.22
2023-04-12T11:36:13.484Z,6.80
2023-04-12T11:38:41.261Z,6.35
2023-04-12T11:41:08.631Z,4.72
2023-04-12T11:43:38.689Z,5.78
2023-04-12T11:46:06.101Z,6.50
2023-04-12T11:48:36.180Z,5.40
2023-04-12T11:51:21.759Z,5.25
2023-04-12T11:53:56.029Z,6.22
2023-04-12T11:56:23.921Z,4.70
2023-04-12T11:58:51.374Z,7.15
2023-04-12T12:01:22.728Z,5.18
2023-04-12T12:03:50.497Z,7.47
2023-04-12T12:06:18.311Z,6.07
2023-04-12T12:08:46.009Z,5.60
2023-04-12T12:11:13.266Z,4.95
2023-04-12T12:13:54.818Z,5.82
2023-04-12T12:16:29.132Z,8.10
2023-04-12T12:18:58.509Z,5.20
2023-04-12T12:21:27.460Z,4.85
2023-04-12T12:23:56.602Z,6.45
2023-04-12T12:26:28.739Z,5.65
2023-04-12T12:28:57.333Z,5.15
2023-04-12T12:31:28.541Z,6.30
2023-04-12T12:33:57.305Z,8.13
2023-04-12T12:36:34.721Z,5.35
2023-04-12T12:39:07.349Z,5.05
2023-04-12T12:41:35.103Z,6.25
2023-04-12T12:44:03.109Z,7.72
2023-04-12T12:46:48.390Z,5.88
2023-04-12T12:49:18.723Z,4.50
2023-04-12T12:51:46.527Z,7.03
2023-04-12T12:54:14.302Z,5.90
2023-04-12T12:56:42.189Z,5.38
2023-04-12T12:59:09.293Z,6.72
2023-04-12T13:01:36.439Z,5.68
2023-04-12T13:04:04.877Z,6.05
2023-04-12T13:06:33.389Z,5.18
2023-04-12T13:09:00.713Z,6.65
2023-04-12T13:11:28.593Z,5.70
2023-04-12T13:13:56.094Z,5.32
2023-04-12T13:16:26.144Z,6.50
2023-04-12T13:18:55.875Z,5.80
2023-04-12T13:21:23.226Z,6.90
2023-04-12T13:23:51.149Z,5.57
2023-04-12T13:26:18.785Z,5.25
2023-04-12T13:28:45.866Z,7.47
2023-04-12T13:31:12.983Z,5.40
2023-04-12T13:33:40.082Z,5.80
2023-04-12T13:36:08.300Z,5.32
2023-04-12T13:38:35.716Z,5.70
2023-04-12T13:41:03.002Z,7.85
2023-04-12T13:43:30.400Z,4.43
2023-04-12T13:45:58.072Z,5.13
2023-04-12T13:48:25.833Z,4.95
2023-04-12T13:50:54.934Z,7.70
2023-04-12T13:53:22.684Z,6.07
2023-04-12T13:55:50.325Z,4.78
2023-04-12T13:58:18.925Z,5.57
2023-04-12T14:00:46.101Z,6.68
2023-04-12T14:03:13.203Z,5.85
2023-04-12T14:05:40.329Z,5.28
2023-04-12T14:08:07.657Z,6.93
2023-04-12T14:10:34.888Z,6.68
2023-04-12T14:13:02.053Z,6.40
2023-04-12T14:15:30.603Z,7.50
2023-04-12T14:17:58.162Z,5.93
2023-04-12T14:20:26.012Z,5.28
2023-04-12T14:22:53.602Z,7.32
2023-04-12T14:25:21.403Z,6.40
2023-04-12T14:27:48.972Z,4.70
2023-04-12T14:30:18.846Z,7.10
2023-04-12T14:32:47.539Z,4.53
2023-04-12T14:35:15.325Z,4.65
2023-04-12T14:37:43.378Z,6.70
2023-04-12T14:40:16.483Z,6.40
2023-04-12T14:42:49.088Z,5.20
2023-04-12T14:45:21.000Z,6.33
2023-04-12T14:47:48.277Z,7.40
2023-04-12T14:50:17.020Z,6.40
2023-04-12T14:52:44.124Z,6.68
2023-04-12T14:55:11.439Z,5.40
2023-04-12T14:57:39.394Z,5.85
2023-04-12T15:00:13.413Z,6.22
2023-04-12T15:02:41.417Z,7.25
2023-04-12T15:05:09.661Z,5.97
2023-04-12T15:07:40.047Z,5.70
2023-04-12T15:10:08.163Z,9.07
2023-04-12T15:12:37.373Z,5.80
2023-04-12T15:15:06.978Z,7.85
2023-04-12T15:17:35.200Z,7.15
2023-04-12T15:20:12.629Z,6.60
2023-04-12T15:22:43.310Z,6.90
2023-04-12T15:25:11.585Z,6.97
2023-04-12T15:27:38.632Z,6.53
2023-04-12T15:30:10.331Z,8.05
2023-04-12T15:32:38.603Z,6.70
2023-04-12T15:35:22.769Z,5.28
2023-04-12T15:37:54.991Z,5.95
2023-04-12T15:40:22.910Z,6.03
2023-04-12T15:42:50.078Z,5.72
2023-04-12T15:45:18.209Z,8.98
2023-04-12T15:47:46.683Z,8.25
2023-04-12T15:50:14.235Z,7.15
2023-04-12T15:52:43.193Z,6.57
2023-04-12T15:55:11.699Z,7.45
2023-04-12T15:57:39.206Z,7.43
2023-04-12T16:00:21.370Z,8.38
2023-04-12T16:02:53.720Z,7.47
2023-04-12T16:05:21.633Z,8.10
2023-04-12T16:07:51.717Z,7.15
2023-04-12T16:10:20.845Z,8.02
2023-04-12T16:12:49.701Z,8.57
2023-04-12T16:15:17.675Z,8.68
2023-04-12T16:17:45.346Z,7.65
2023-04-12T16:20:16.648Z,6.93
2023-04-12T16:22:45.315Z,8.45
2023-04-12T16:25:12.664Z,7.95
2023-04-12T16:27:39.733Z,9.30
2023-04-12T16:30:08.995Z,8.25
2023-04-12T16:32:37.228Z,8.27
2023-04-12T16:35:08.199Z,7.45
2023-04-12T16:37:36.622Z,6.60
2023-04-12T16:40:08.609Z,6.32
2023-04-12T16:42:36.197Z,7.57
2023-04-12T16:45:04.668Z,7.10
2023-04-12T16:47:32.010Z,8.48
2023-04-12T16:49:59.088Z,7.10
2023-04-12T16:52:29.110Z,8.20
2023-04-12T16:54:58.467Z,7.53
2023-04-12T16:57:25.690Z,6.95
2023-04-12T16:59:53.302Z,5.95
2023-04-12T17:02:21.660Z,6.70
2023-04-12T17:04:48.830Z,8.02
2023-04-12T17:07:16.640Z,7.07
2023-04-12T17:09:44.679Z,7.32
2023-04-12T17:12:14.854Z,7.90
2023-04-12T17:14:42.002Z,8.50
2023-04-12T17:17:09.235Z,9.30
2023-04-12T17:19:38.199Z,10.23
2023-04-12T17:22:08.963Z,10.07
2023-04-12T17:24:38.945Z,14.30
2023-04-12T17:27:09.190Z,9.80
2023-04-12T17:29:36.323Z,8.40
2023-04-12T17:32:04.757Z,8.00
2023-04-12T17:34:34.053Z,10.07
2023-04-12T17:37:01.876Z,10.93
2023-04-12T17:39:31.364Z,16.23
2023-04-12T17:41:59.618Z,13.57
2023-04-12T17:44:28.631Z,13.68
2023-04-12T17:46:59.712Z,13.55
2023-04-12T17:49:30.030Z,14.93
2023-04-12T17:52:01.527Z,17.73
2023-04-12T17:54:29.291Z,19.60
2023-04-12T17:56:57.725Z,19.23
2023-04-12T17:59:25.565Z,18.05
2023-04-12T18:01:53.195Z,18.08
2023-04-12T18:04:20.578Z,18.63
2023-04-12T18:06:48.952Z,20.17
2023-04-12T18:09:16.016Z,19.05
2023-04-12T18:11:43.814Z,21.15
2023-04-12T18:14:10.953Z,21.70
2023-04-12T18:16:43.261Z,26.63
2023-04-12T18:19:11.572Z,24.98
2023-04-12T18:21:38.806Z,26.73
2023-04-12T18:24:09.400Z,28.08
2023-04-12T18:26:36.522Z,26.75
2023-04-12T18:29:04.662Z,34.30
2023-04-12T18:31:32.030Z,30.77
2023-04-12T18:34:00.148Z,26.67
2023-04-12T18:36:30.547Z,25.90
2023-04-12T18:38:58.534Z,25.42
2023-04-12T18:41:26.771Z,24.90
2023-04-12T18:43:53.965Z,29.45
2023-04-12T18:46:21.129Z,24.60
2023-04-12T18:48:52.502Z,27.50
2023-04-12T18:51:22.151Z,24.83
2023-04-12T18:53:52.431Z,20.20
2023-04-12T18:56:24.362Z,17.83
2023-04-12T18:58:56.141Z,19.60
2023-04-12T19:01:25.015Z,20.08
2023-04-12T19:03:53.044Z,20.60
2023-04-12T19:06:20.222Z,20.83
2023-04-12T19:08:52.264Z,20.90
2023-04-12T19:11:20.296Z,22.17
2023-04-12T19:13:48.182Z,21.58
2023-04-12T19:16:16.521Z,24.38
2023-04-12T19:18:50.305Z,22.40
2023-04-12T19:21:36.316Z,22.52
2023-04-12T19:24:34.729Z,21.35
2023-04-12T19:27:20.677Z,20.85
2023-04-12T19:29:56.871Z,22.55
2023-04-12T19:32:25.576Z,24.77
2023-04-12T19:34:56.931Z,25.92
2023-04-12T19:37:35.106Z,29.00
2023-04-12T19:40:05.995Z,36.65
2023-04-12T19:42:33.425Z,39.55
2023-04-12T19:45:03.372Z,53.72
2023-04-12T19:47:30.748Z,56.80
2023-04-12T19:50:07.626Z,38.45
2023-04-12T19:52:35.351Z,33.83
2023-04-12T19:55:19.153Z,30.42
2023-04-12T19:57:46.757Z,31.15
2023-04-12T20:00:19.777Z,31.10
2023-04-12T20:02:51.192Z,29.73
2023-04-12T20:05:20.206Z,28.88
2023-04-12T20:07:47.410Z,34.47
2023-04-12T20:10:15.605Z,32.88
2023-04-12T20:12:44.503Z,38.05
2023-04-12T20:15:11.864Z,33.83
2023-04-12T20:17:45.961Z,35.45
2023-04-12T20:20:14.335Z,38.97
2023-04-12T20:22:42.061Z,37.42
2023-04-12T20:25:10.930Z,38.70
2023-04-12T20:27:39.106Z,32.70
2023-04-12T20:30:07.220Z,38.30
2023-04-12T20:32:35.946Z,41.28
2023-04-12T20:35:04.432Z,38.03
2023-04-12T20:37:32.663Z,40.60
2023-04-12T20:39:59.727Z,34.90
2023-04-12T20:42:26.934Z,31.85
2023-04-12T20:44:55.100Z,34.80
2023-04-12T20:47:24.463Z,33.08
2023-04-12T20:49:52.293Z,32.70
2023-04-12T20:52:19.558Z,30.98
2023-04-12T20:54:48.260Z,35.00
2023-04-12T20:57:19.636Z,32.08
2023-04-12T20:59:47.090Z,33.67
2023-04-12T21:02:18.248Z,32.15
2023-04-12T21:04:46.205Z,29.02
2023-04-12T21:07:14.907Z,30.13
2023-04-12T21:09:41.953Z,29.75
2023-04-12T21:12:09.806Z,32.50
2023-04-12T21:14:37.948Z,28.42
2023-04-12T21:17:05.761Z,27.48
2023-04-12T21:19:39.006Z,29.35
2023-04-12T21:22:07.091Z,26.88
2023-04-12T21:24:40.586Z,27.05
2023-04-12T21:27:08.389Z,26.67
2023-04-12T21:29:37.439Z,23.95
2023-04-12T21:32:08.262Z,24.23
2023-04-12T21:34:35.979Z,24.70
2023-04-12T21:37:04.076Z,22.63
2023-04-12T21:39:31.678Z,24.05
2023-04-12T21:41:58.668Z,33.28
2023-04-12T21:44:25.838Z,45.92
2023-04-12T21:46:53.010Z,43.05
2023-04-12T21:49:20.510Z,40.63
2023-04-12T21:51:49.202Z,32.80
2023-04-12T21:54:16.796Z,31.05
2023-04-12T21:56:43.906Z,29.85
2023-04-12T21:59:10.957Z,23.35
2023-04-12T22:01:38.128Z,21.67
2023-04-12T22:04:05.905Z,22.42
2023-04-12T22:06:33.700Z,23.13
2023-04-12T22:09:05.169Z,21.77
2023-04-12T22:11:32.219Z,22.25
2023-04-12T22:13:59.414Z,23.33
2023-04-12T22:16:28.028Z,23.02
2023-04-12T22:18:55.907Z,21.90
2023-04-12T22:21:23.233Z,49.13
2023-04-12T22:23:50.866Z,70.97
2023-04-12T22:26:17.956Z,131.02
2023-04-12T22:28:48.358Z,179.05
2023-04-12T22:31:16.154Z,203.25
2023-04-12T22:33:43.813Z,120.90
2023-04-12T22:36:11.997Z,95.20
2023-04-12T22:38:39.111Z,80.97
2023-04-12T22:41:08.900Z,45.40
2023-04-12T22:43:47.778Z,42.15
2023-04-12T22:46:29.039Z,43.30
2023-04-12T22:48:56.203Z,34.22
2023-04-12T22:51:27.342Z,33.92
2023-04-12T22:53:55.456Z,32.03
2023-04-12T22:56:22.846Z,36.80
2023-04-12T22:58:49.973Z,40.85
2023-04-12T23:01:18.252Z,32.35
2023-04-12T23:03:45.903Z,39.40
2023-04-12T23:06:13.024Z,37.05
2023-04-12T23:08:40.765Z,38.60
2023-04-12T23:11:09.946Z,34.63
2023-04-12T23:13:37.055Z,32.97
2023-04-12T23:16:05.664Z,34.17
2023-04-12T23:18:32.841Z,36.45
2023-04-12T23:21:01.593Z,38.60
2023-04-12T23:23:29.938Z,33.28
2023-04-12T23:25:57.040Z,36.97
2023-04-12T23:28:25.825Z,38.38
2023-04-12T23:30:52.889Z,38.78
2023-04-12T23:33:20.780Z,37.05
2023-04-12T23:35:49.471Z,37.80
2023-04-12T23:38:23.236Z,36.53
2023-04-12T23:40:59.163Z,36.38
2023-04-12T23:43:26.980Z,35.17
2023-04-12T23:45:54.746Z,35.33
2023-04-12T23:48:23.035Z,34.95
2023-04-12T23:50:51.141Z,36.25
2023-04-12T23:53:18.970Z,32.70
2023-04-12T23:55:51.098Z,32.05
2023-04-12T23:58:18.508Z,33.20
